Time;durP1;ratioP1;P1;durP2;ratioP2;P2;SDS_P1;SDS_P2;PMS_P1;PMS_P2;Temp;Humidity;BMP_temperature;BMP_pressure;BME280_temperature;BME280_humidity;BME280_pressure;Samples;Min_cycle;Max_cycle;Signal;HPM_P1;HPM_P2
2021/08/29 00:02:07;;;;;;;21.13;12.60;;;14.90;99.90;;;;;;4987615;28;20045;-65
2021/08/29 00:04:34;;;;;;;18.75;13.10;;;14.80;99.90;;;;;;4987629;28;20130;-66
2021/08/29 00:07:01;;;;;;;15.48;12.00;;;14.80;99.90;;;;;;4984333;28;20046;-67
2021/08/29 00:09:28;;;;;;;17.50;13.95;;;14.80;99.90;;;;;;4986852;28;20145;-64
2021/08/29 00:11:55;;;;;;;20.52;14.77;;;14.70;99.90;;;;;;4984842;28;20140;-66
2021/08/29 00:14:22;;;;;;;15.07;12.32;;;14.70;99.90;;;;;;4987098;28;20064;-63
2021/08/29 00:16:49;;;;;;;21.95;13.52;;;14.80;99.90;;;;;;4986632;28;20148;-70
2021/08/29 00:19:16;;;;;;;16.40;13.20;;;14.70;99.90;;;;;;4987256;28;20054;-68
2021/08/29 00:21:42;;;;;;;17.17;13.18;;;14.70;99.90;;;;;;4985535;28;20137;-65
2021/08/29 00:24:09;;;;;;;15.73;12.32;;;14.70;99.90;;;;;;4987879;28;20054;-66
2021/08/29 00:26:36;;;;;;;19.83;13.65;;;14.80;99.90;;;;;;4987216;28;20054;-67
2021/08/29 00:29:03;;;;;;;16.70;13.27;;;14.80;99.90;;;;;;4985232;28;20107;-66
2021/08/29 00:31:30;;;;;;;19.55;14.25;;;14.80;99.90;;;;;;4987035;28;20188;-66
2021/08/29 00:33:57;;;;;;;20.15;14.60;;;14.70;99.90;;;;;;4985713;28;20073;-68
2021/08/29 00:36:24;;;;;;;17.02;13.52;;;14.70;99.90;;;;;;4987768;28;20050;-64
2021/08/29 00:38:52;;;;;;;18.38;13.38;;;14.60;99.90;;;;;;4987618;28;20135;-68
2021/08/29 00:41:18;;;;;;;21.60;14.07;;;14.60;99.90;;;;;;4987084;28;20153;-64
2021/08/29 00:43:46;;;;;;;25.48;14.82;;;14.60;99.90;;;;;;5001247;28;20054;-68
2021/08/29 00:46:12;;;;;;;19.10;15.73;;;14.60;99.90;;;;;;4987816;28;20138;-68
2021/08/29 00:48:44;;;;;;;20.85;15.27;;;14.60;99.90;;;;;;4988133;28;20687;-68
2021/08/29 00:51:13;;;;;;;21.35;15.57;;;14.60;99.90;;;;;;4985847;28;20081;-65
2021/08/29 00:53:54;;;;;;;18.60;16.40;;;14.60;99.90;;;;;;4984789;28;20049;-67
2021/08/29 00:56:24;;;;;;;15.73;14.05;;;14.60;99.90;;;;;;4986831;28;20057;-64
2021/08/29 00:58:54;;;;;;;19.73;14.75;;;14.60;99.90;;;;;;4998892;28;20050;-66
2021/08/29 01:01:54;;;;;;;18.40;13.60;;;14.70;99.90;;;;;;4986670;28;20107;-64
2021/08/29 01:04:34;;;;;;;21.92;15.27;;;14.70;99.90;;;;;;4971162;28;20057;-63
2021/08/29 01:07:18;;;;;;;17.73;13.60;;;14.80;99.90;;;;;;4995423;28;20141;-67
2021/08/29 01:09:58;;;;;;;22.38;16.75;;;14.80;99.90;;;;;;4993814;28;20050;-71
2021/08/29 01:12:43;;;;;;;19.35;14.20;;;14.80;99.90;;;;;;4983502;28;20053;-70
2021/08/29 01:15:13;;;;;;;19.50;14.65;;;14.80;99.90;;;;;;4985201;28;20131;-67
2021/08/29 01:17:45;;;;;;;16.55;14.57;;;14.80;99.90;;;;;;4985368;28;21463;-67
2021/08/29 01:20:45;;;;;;;29.67;16.70;;;14.80;99.90;;;;;;4986472;28;20586;-66
2021/08/29 01:23:13;;;;;;;21.17;15.20;;;14.90;99.90;;;;;;4986813;28;20057;-66
2021/08/29 01:25:52;;;;;;;33.63;16.20;;;14.90;99.90;;;;;;4986026;28;20101;-65
2021/08/29 01:28:26;;;;;;;19.77;15.43;;;14.90;99.90;;;;;;4986515;28;21500;-65
2021/08/29 01:30:54;;;;;;;24.73;17.73;;;14.90;99.90;;;;;;5002423;28;20057;-65
2021/08/29 01:33:24;;;;;;;22.58;16.25;;;14.90;99.90;;;;;;4989502;28;20448;-64
2021/08/29 01:35:58;;;;;;;17.80;14.52;;;14.90;99.90;;;;;;4986105;28;20046;-66
2021/08/29 01:38:25;;;;;;;16.40;14.48;;;14.90;99.90;;;;;;4999047;28;20104;-70
2021/08/29 01:40:53;;;;;;;21.13;16.67;;;14.90;99.90;;;;;;4985986;28;20120;-70
2021/08/29 01:43:20;;;;;;;21.70;15.05;;;14.90;99.90;;;;;;4985970;28;20125;-65
2021/08/29 01:45:47;;;;;;;19.88;15.23;;;14.90;99.90;;;;;;4985902;28;20077;-65
2021/08/29 01:48:19;;;;;;;19.25;15.75;;;14.90;99.90;;;;;;4999398;28;20495;-69
2021/08/29 01:50:52;;;;;;;22.63;15.30;;;14.90;99.90;;;;;;4990221;28;20053;-64
2021/08/29 01:53:41;;;;;;;21.55;17.55;;;14.80;99.90;;;;;;5000351;28;20064;-69
2021/08/29 01:56:25;;;;;;;20.40;16.40;;;14.80;99.90;;;;;;4986755;28;20134;-63
2021/08/29 01:58:55;;;;;;;22.55;17.05;;;14.80;99.90;;;;;;5000786;28;20379;-66
2021/08/29 02:01:27;;;;;;;22.35;18.13;;;14.80;99.90;;;;;;5002540;28;20065;-67
2021/08/29 02:03:59;;;;;;;19.27;15.43;;;14.80;99.90;;;;;;4985001;28;20054;-66
2021/08/29 02:06:42;;;;;;;23.92;16.23;;;14.90;99.90;;;;;;4988321;28;20049;-65
2021/08/29 02:09:11;;;;;;;19.83;15.68;;;14.90;99.90;;;;;;4988854;28;20058;-71
2021/08/29 02:11:51;;;;;;;21.05;16.75;;;14.90;99.90;;;;;;5001783;28;20068;-69
2021/08/29 02:15:04;;;;;;;21.92;17.05;;;14.90;99.90;;;;;;4986042;28;20057;-69
2021/08/29 02:17:32;;;;;;;20.48;15.35;;;14.90;99.90;;;;;;4987332;28;20057;-70
2021/08/29 02:20:04;;;;;;;18.20;14.88;;;14.90;99.90;;;;;;4999622;28;20144;-66
2021/08/29 02:22:33;;;;;;;25.83;17.75;;;14.90;99.90;;;;;;5001116;28;20054;-65
2021/08/29 02:25:03;;;;;;;23.33;17.88;;;14.90;99.90;;;;;;4988095;28;20137;-67
2021/08/29 02:27:34;;;;;;;18.60;15.68;;;14.90;99.90;;;;;;4989808;28;20050;-64
2021/08/29 02:30:04;;;;;;;21.55;16.42;;;14.90;99.90;;;;;;4983142;28;20054;-65
2021/08/29 02:32:33;;;;;;;21.30;15.48;;;14.90;99.90;;;;;;4985917;28;20297;-67
2021/08/29 02:35:00;;;;;;;22.55;16.25;;;14.90;99.90;;;;;;4990224;28;20042;-67
2021/08/29 02:37:42;;;;;;;19.60;16.00;;;14.90;99.90;;;;;;4984668;28;20779;-69
2021/08/29 02:40:10;;;;;;;24.38;18.40;;;14.90;99.90;;;;;;4987688;28;20057;-69
2021/08/29 02:42:40;;;;;;;20.58;17.23;;;14.90;99.90;;;;;;4986041;28;20580;-68
2021/08/29 02:45:12;;;;;;;19.55;16.27;;;14.90;99.90;;;;;;4989335;28;21766;-64
2021/08/29 02:47:40;;;;;;;21.65;16.83;;;14.90;99.90;;;;;;4984903;28;20148;-67
2021/08/29 02:50:08;;;;;;;21.67;16.02;;;14.90;99.90;;;;;;4987662;28;20093;-68
2021/08/29 02:52:42;;;;;;;20.73;16.25;;;14.90;99.90;;;;;;4986203;28;20054;-68
2021/08/29 02:55:11;;;;;;;22.45;18.13;;;14.90;99.90;;;;;;4987909;28;20116;-66
2021/08/29 02:57:38;;;;;;;20.35;16.45;;;15.00;99.90;;;;;;4989784;28;20189;-65
2021/08/29 03:00:24;;;;;;;18.05;15.70;;;15.00;99.90;;;;;;4986585;28;20064;-65
2021/08/29 03:03:01;;;;;;;20.38;16.27;;;15.00;99.90;;;;;;5000962;28;20045;-67
2021/08/29 03:05:31;;;;;;;22.40;17.63;;;15.00;99.90;;;;;;4983159;28;20050;-65
2021/08/29 03:07:58;;;;;;;20.33;17.42;;;15.00;99.90;;;;;;4985024;28;20046;-68
2021/08/29 03:10:25;;;;;;;19.80;16.77;;;15.00;99.90;;;;;;4986591;28;20627;-66
2021/08/29 03:12:53;;;;;;;19.85;16.45;;;14.90;99.90;;;;;;4986078;28;20073;-64
2021/08/29 03:15:41;;;;;;;23.52;17.92;;;14.90;99.90;;;;;;4988055;28;20634;-67
2021/08/29 03:18:36;;;;;;;25.08;17.70;;;14.90;99.90;;;;;;4982082;28;20733;-71
2021/08/29 03:21:23;;;;;;;22.35;17.48;;;14.90;99.90;;;;;;4987536;28;20054;-66
2021/08/29 03:24:10;;;;;;;20.28;15.23;;;14.90;99.90;;;;;;1258820;28;10023378;-66
2021/08/29 03:26:38;;;;;;;20.08;16.80;;;14.90;99.90;;;;;;4624733;28;10001540;-70
2021/08/29 03:29:21;;;;;;;18.42;16.35;;;14.90;99.90;;;;;;4969489;28;21318;-66
2021/08/29 03:31:48;;;;;;;23.15;17.98;;;14.90;99.90;;;;;;4968113;28;20493;-72
2021/08/29 03:34:18;;;;;;;27.20;19.20;;;14.90;99.90;;;;;;4984075;28;20109;-64
2021/08/29 03:36:46;;;;;;;21.83;18.55;;;14.90;99.90;;;;;;4971956;28;20051;-69
2021/08/29 03:39:17;;;;;;;23.75;16.80;;;14.90;99.90;;;;;;4985854;28;20153;-68
2021/08/29 03:41:46;;;;;;;26.30;17.83;;;15.00;99.90;;;;;;4963968;28;20066;-67
2021/08/29 03:44:15;;;;;;;20.20;17.83;;;14.90;99.90;;;;;;4970056;28;20058;-69
2021/08/29 03:46:42;;;;;;;21.30;17.88;;;14.90;99.90;;;;;;4956824;28;20062;-69
2021/08/29 03:49:26;;;;;;;23.20;17.77;;;15.00;99.90;;;;;;4984206;28;20048;-68
2021/08/29 03:51:55;;;;;;;22.52;16.90;;;15.00;99.90;;;;;;4984236;28;20054;-71
2021/08/29 03:54:23;;;;;;;24.90;18.52;;;15.00;99.90;;;;;;4985941;28;20464;-64
2021/08/29 03:56:51;;;;;;;26.63;18.33;;;15.00;99.90;;;;;;4984664;28;20801;-65
2021/08/29 03:59:18;;;;;;;21.63;18.70;;;15.00;99.90;;;;;;4990335;28;20133;-67
2021/08/29 04:01:45;;;;;;;18.83;15.85;;;15.00;99.90;;;;;;4968685;28;20085;-64
2021/08/29 04:04:13;;;;;;;21.73;16.90;;;15.00;99.90;;;;;;4970413;28;20465;-67
2021/08/29 04:06:40;;;;;;;23.25;16.75;;;15.00;99.90;;;;;;4985619;28;20050;-67
2021/08/29 04:09:19;;;;;;;22.50;16.52;;;15.00;99.90;;;;;;5004587;28;20137;-66
2021/08/29 04:11:49;;;;;;;23.33;18.88;;;15.00;99.90;;;;;;4993579;28;20057;-70
2021/08/29 04:14:23;;;;;;;18.60;16.73;;;15.00;99.90;;;;;;4986733;28;20054;-64
2021/08/29 04:16:53;;;;;;;20.63;16.55;;;15.00;99.90;;;;;;4983914;28;20138;-65
2021/08/29 04:19:54;;;;;;;25.17;15.85;;;15.00;99.90;;;;;;4982503;28;20200;-68
2021/08/29 04:22:22;;;;;;;17.95;16.05;;;15.00;99.90;;;;;;4966731;28;20508;-69
2021/08/29 04:24:49;;;;;;;23.42;18.08;;;15.00;99.90;;;;;;4983137;28;20054;-68
2021/08/29 04:27:18;;;;;;;19.13;16.73;;;15.10;99.90;;;;;;4968575;28;20059;-67
2021/08/29 04:29:48;;;;;;;20.40;16.48;;;15.10;99.90;;;;;;4984135;28;20078;-65
2021/08/29 04:32:15;;;;;;;24.83;18.85;;;15.20;99.90;;;;;;4971534;28;20127;-65
2021/08/29 04:34:42;;;;;;;21.83;17.48;;;15.30;99.90;;;;;;4973450;28;20050;-67
2021/08/29 04:37:16;;;;;;;21.08;17.85;;;15.30;99.90;;;;;;4971851;28;20865;-65
2021/08/29 04:39:52;;;;;;;24.10;17.95;;;15.40;99.90;;;;;;4983870;28;20050;-71
2021/08/29 04:42:21;;;;;;;29.27;18.33;;;15.40;99.90;;;;;;4983265;28;20139;-67
2021/08/29 04:44:49;;;;;;;26.63;17.02;;;15.40;99.90;;;;;;4967301;28;20145;-68
2021/08/29 04:47:15;;;;;;;18.65;16.55;;;15.50;99.90;;;;;;4971568;28;20081;-67
2021/08/29 04:49:47;;;;;;;22.95;16.88;;;15.50;99.90;;;;;;5003257;28;20517;-64
2021/08/29 04:52:20;;;;;;;22.02;17.65;;;15.50;99.90;;;;;;4965618;28;20046;-64
2021/08/29 04:54:47;;;;;;;19.58;16.00;;;15.50;99.90;;;;;;4967342;28;20453;-65
2021/08/29 04:57:14;;;;;;;21.75;16.67;;;15.60;99.90;;;;;;5003776;28;20552;-68
2021/08/29 04:59:42;;;;;;;20.42;15.68;;;15.50;99.90;;;;;;4981496;28;20182;-67
2021/08/29 05:02:09;;;;;;;23.02;15.52;;;15.40;99.90;;;;;;4980359;28;20082;-66
2021/08/29 05:04:38;;;;;;;17.52;13.48;;;15.40;99.90;;;;;;4967084;28;20235;-69
2021/08/29 05:07:05;;;;;;;24.05;14.20;;;15.30;99.90;;;;;;4981971;28;20058;-72
2021/08/29 05:09:34;;;;;;;19.98;15.85;;;15.30;99.90;;;;;;4967352;28;20046;-66
2021/08/29 05:12:01;;;;;;;22.30;14.77;;;15.20;99.90;;;;;;4963915;28;20612;-69
2021/08/29 05:14:29;;;;;;;16.02;13.65;;;15.20;99.90;;;;;;4986298;28;20112;-69
2021/08/29 05:16:56;;;;;;;18.80;15.10;;;15.20;99.90;;;;;;4970864;28;20062;-70
2021/08/29 05:19:24;;;;;;;18.60;15.65;;;15.20;99.90;;;;;;4971113;28;20157;-69
2021/08/29 05:22:00;;;;;;;19.80;14.32;;;15.20;99.90;;;;;;4974176;28;20145;-68
2021/08/29 05:24:47;;;;;;;21.25;16.02;;;15.10;99.90;;;;;;4971491;28;20058;-63
2021/08/29 05:27:15;;;;;;;20.40;15.10;;;15.10;99.90;;;;;;4965501;28;20145;-65
2021/08/29 05:29:49;;;;;;;23.70;14.52;;;15.10;99.90;;;;;;4978838;28;20427;-64
2021/08/29 05:32:15;;;;;;;21.42;15.80;;;15.10;99.90;;;;;;4964485;28;20058;-65
2021/08/29 05:34:42;;;;;;;23.67;15.38;;;15.20;99.90;;;;;;4964835;28;20054;-66
2021/08/29 05:37:13;;;;;;;;;;;15.20;99.90;;;;;;4980201;28;20050;-66
2021/08/29 05:39:58;;;;;;;23.15;15.63;;;15.20;99.90;;;;;;4967896;28;20091;-64
2021/08/29 05:42:31;;;;;;;32.78;15.43;;;15.30;99.90;;;;;;4982725;28;20145;-68
2021/08/29 05:45:07;;;;;;;20.58;16.05;;;15.40;99.90;;;;;;4965395;28;20052;-72
2021/08/29 05:47:34;;;;;;;22.08;16.25;;;15.40;99.90;;;;;;4963605;28;20051;-64
2021/08/29 05:50:01;;;;;;;27.90;17.88;;;15.50;99.90;;;;;;4966164;28;20050;-67
2021/08/29 05:52:29;;;;;;;22.00;17.38;;;15.60;99.90;;;;;;4963368;28;20104;-67
2021/08/29 05:54:56;;;;;;;26.80;17.50;;;15.60;99.90;;;;;;4963898;28;20060;-64
2021/08/29 05:57:23;;;;;;;22.77;17.98;;;15.60;99.90;;;;;;4967047;28;20080;-70
2021/08/29 05:59:50;;;;;;;22.73;16.70;;;15.60;99.90;;;;;;4999259;28;20054;-70
2021/08/29 06:02:17;;;;;;;22.92;17.35;;;15.60;99.90;;;;;;4969682;28;20070;-68
2021/08/29 06:04:44;;;;;;;24.00;18.35;;;15.60;99.90;;;;;;4969444;28;20400;-66
2021/08/29 06:07:18;;;;;;;23.92;16.42;;;15.70;99.90;;;;;;4969073;28;20789;-64
2021/08/29 06:09:54;;;;;;;22.55;15.43;;;15.70;99.90;;;;;;4969193;28;20043;-70
2021/08/29 06:12:21;;;;;;;21.67;17.85;;;15.60;99.90;;;;;;4967160;28;20930;-67
2021/08/29 06:14:48;;;;;;;22.27;16.60;;;15.70;99.90;;;;;;4982944;28;20733;-75
2021/08/29 06:17:15;;;;;;;25.45;17.05;;;15.70;99.90;;;;;;4969550;28;20050;-68
2021/08/29 06:19:42;;;;;;;27.80;17.92;;;15.70;99.90;;;;;;4981488;28;20070;-70
2021/08/29 06:22:09;;;;;;;24.27;16.98;;;15.70;99.90;;;;;;4984450;28;20046;-71
2021/08/29 06:24:52;;;;;;;20.63;15.80;;;15.70;99.90;;;;;;4963420;28;20050;-70
2021/08/29 06:27:37;;;;;;;17.40;14.65;;;15.70;99.90;;;;;;4973739;28;20081;-69
2021/08/29 06:30:07;;;;;;;21.50;15.40;;;15.70;99.90;;;;;;4970278;28;20436;-70
2021/08/29 06:33:00;;;;;;;27.40;16.20;;;15.80;99.90;;;;;;4956728;28;20058;-68
2021/08/29 06:35:28;;;;;;;19.45;14.60;;;15.80;99.90;;;;;;4985622;28;20950;-67
2021/08/29 06:38:02;;;;;;;21.58;16.92;;;15.80;99.90;;;;;;4979502;28;20169;-66
2021/08/29 06:40:29;;;;;;;22.05;14.70;;;15.80;99.90;;;;;;4983043;28;20058;-68
2021/08/29 06:42:56;;;;;;;16.25;14.55;;;15.80;99.90;;;;;;4971706;28;21346;-68
2021/08/29 06:45:42;;;;;;;17.50;13.38;;;15.80;99.90;;;;;;4967573;28;20065;-68
2021/08/29 06:48:44;;;;;;;18.15;14.23;;;15.80;99.90;;;;;;4971752;28;20054;-66
2021/08/29 06:51:29;;;;;;;14.60;13.15;;;15.70;99.90;;;;;;4973594;28;20235;-67
2021/08/29 06:54:11;;;;;;;19.00;14.15;;;15.70;99.90;;;;;;4971041;28;20051;-68
2021/08/29 06:56:57;;;;;;;16.80;15.05;;;15.60;99.90;;;;;;4973120;28;20053;-64
2021/08/29 06:59:26;;;;;;;20.80;15.73;;;15.70;99.90;;;;;;4986309;28;20101;-68
2021/08/29 07:01:55;;;;;;;16.08;14.43;;;15.60;99.90;;;;;;4964700;28;20078;-68
2021/08/29 07:04:22;;;;;;;24.92;14.50;;;15.60;99.90;;;;;;4970200;28;20137;-74
2021/08/29 07:06:52;;;;;;;17.87;13.93;;;15.60;99.90;;;;;;4971339;28;21289;-67
2021/08/29 07:09:28;;;;;;;17.60;13.48;;;15.60;99.90;;;;;;4971193;28;20050;-67
2021/08/29 07:11:54;;;;;;;16.33;13.98;;;15.70;99.90;;;;;;4965841;28;20508;-68
2021/08/29 07:14:55;;;;;;;24.20;13.77;;;15.70;99.90;;;;;;4957295;28;20054;-72
2021/08/29 07:17:22;;;;;;;21.50;16.02;;;15.80;99.90;;;;;;4972692;28;20516;-65
2021/08/29 07:19:51;;;;;;;16.92;12.82;;;15.80;99.90;;;;;;4981692;28;20050;-68
2021/08/29 07:22:40;;;;;;;17.58;13.57;;;15.80;99.90;;;;;;4971931;28;20149;-69
2021/08/29 07:25:27;;;;;;;14.20;12.70;;;15.80;99.90;;;;;;4969305;28;20140;-69
2021/08/29 07:28:13;;;;;;;15.63;14.13;;;15.80;99.90;;;;;;4969255;28;20085;-64
2021/08/29 07:31:18;;;;;;;15.40;13.77;;;15.90;99.90;;;;;;4971392;28;20054;-67
2021/08/29 07:33:45;;;;;;;15.20;13.63;;;15.90;99.90;;;;;;4964151;28;21068;-64
2021/08/29 07:36:19;;;;;;;17.60;14.10;;;16.00;99.90;;;;;;4981249;28;20046;-70
2021/08/29 07:38:56;;;;;;;17.73;15.07;;;16.00;99.90;;;;;;4969926;28;20058;-71
2021/08/29 07:41:23;;;;;;;15.75;13.32;;;16.10;99.90;;;;;;4970535;28;20120;-69
2021/08/29 07:43:50;;;;;;;14.27;12.70;;;16.20;99.90;;;;;;4968755;28;20596;-68
2021/08/29 07:46:17;;;;;;;16.30;13.35;;;16.20;99.90;;;;;;4965818;28;20417;-73
2021/08/29 07:48:44;;;;;;;15.68;11.85;;;16.20;99.90;;;;;;4984010;28;20054;-68
2021/08/29 07:51:12;;;;;;;17.98;13.35;;;16.20;99.90;;;;;;4979958;28;20050;-69
2021/08/29 07:54:18;;;;;;;18.27;14.75;;;16.30;99.90;;;;;;4922566;28;20189;-68
2021/08/29 07:56:54;;;;;;;19.95;13.38;;;16.20;99.90;;;;;;4927416;28;20457;-66
2021/08/29 07:59:21;;;;;;;17.17;13.35;;;16.20;99.90;;;;;;4940905;28;21996;-64
2021/08/29 08:01:48;;;;;;;17.30;12.63;;;16.20;99.90;;;;;;4960880;28;20073;-71
2021/08/29 08:04:51;;;;;;;15.85;14.20;;;16.00;99.90;;;;;;4982074;28;20046;-69
2021/08/29 08:07:50;;;;;;;14.25;12.85;;;16.00;99.90;;;;;;4967991;28;20106;-67
2021/08/29 08:10:37;;;;;;;18.48;14.70;;;16.00;99.90;;;;;;4967377;28;20046;-71
2021/08/29 08:13:21;;;;;;;17.30;12.60;;;16.00;99.90;;;;;;4963470;28;21479;-64
2021/08/29 08:15:48;;;;;;;16.98;13.63;;;15.90;99.90;;;;;;4966630;28;20057;-69
2021/08/29 08:18:15;;;;;;;16.42;13.63;;;16.00;99.90;;;;;;4978312;28;20050;-70
2021/08/29 08:20:42;;;;;;;16.70;13.20;;;16.00;99.90;;;;;;4984702;28;20062;-68
2021/08/29 08:23:27;;;;;;;16.13;14.00;;;16.00;99.90;;;;;;4969668;28;20124;-68
2021/08/29 08:26:15;;;;;;;17.45;13.68;;;16.00;99.90;;;;;;4957164;28;20128;-69
2021/08/29 08:29:00;;;;;;;18.33;12.55;;;16.10;99.90;;;;;;4967657;28;20100;-69
2021/08/29 08:31:45;;;;;;;17.30;12.05;;;16.20;99.90;;;;;;4968832;28;23186;-72
2021/08/29 08:34:31;;;;;;;16.88;14.20;;;16.20;99.90;;;;;;4968861;28;20050;-65
2021/08/29 08:37:04;;;;;;;13.32;12.00;;;16.20;99.90;;;;;;4962609;28;20393;-67
2021/08/29 08:39:51;;;;;;;17.27;13.13;;;16.20;99.90;;;;;;4967501;28;20058;-69
2021/08/29 08:42:26;;;;;;;20.67;13.75;;;16.20;99.90;;;;;;4980199;28;20054;-74
2021/08/29 08:45:11;;;;;;;16.00;12.30;;;16.20;99.90;;;;;;4969048;28;20515;-69
2021/08/29 08:47:59;;;;;;;17.80;13.60;;;16.20;99.90;;;;;;4966409;28;20065;-77
2021/08/29 08:51:08;;;;;;;15.30;11.95;;;16.20;99.90;;;;;;4971832;28;20042;-65
2021/08/29 08:53:55;;;;;;;20.48;12.50;;;16.10;99.90;;;;;;4968963;28;20057;-70
2021/08/29 08:56:40;;;;;;;17.75;11.52;;;16.00;99.90;;;;;;4970842;28;20064;-67
2021/08/29 08:59:23;;;;;;;16.33;14.65;;;16.00;99.90;;;;;;4979489;28;20054;-75
2021/08/29 09:02:09;;;;;;;14.38;12.88;;;16.10;99.90;;;;;;4969183;28;20883;-65
2021/08/29 09:04:36;;;;;;;15.02;13.52;;;16.00;99.90;;;;;;4967143;28;20420;-75
2021/08/29 09:07:05;;;;;;;17.02;13.68;;;16.00;99.90;;;;;;4984457;28;20153;-69
2021/08/29 09:09:34;;;;;;;20.17;14.63;;;16.00;99.90;;;;;;4964501;28;20388;-70
2021/08/29 09:12:01;;;;;;;16.05;13.70;;;16.00;99.90;;;;;;4979356;28;21356;-66
2021/08/29 09:14:58;;;;;;;23.02;14.82;;;16.00;99.90;;;;;;4965796;28;20059;-70
2021/08/29 09:17:37;;;;;;;18.52;14.80;;;16.00;99.90;;;;;;4962758;28;20046;-73
2021/08/29 09:20:24;;;;;;;18.38;14.85;;;16.10;99.90;;;;;;4962261;28;20066;-68
2021/08/29 09:23:03;;;;;;;17.58;14.05;;;16.10;99.90;;;;;;4961864;28;20054;-63
2021/08/29 09:25:59;;;;;;;22.73;15.77;;;16.10;99.90;;;;;;4961827;28;21691;-70
2021/08/29 09:28:28;;;;;;;19.15;14.13;;;16.20;99.90;;;;;;4968174;28;20046;-67
2021/08/29 09:30:59;;;;;;;17.77;13.45;;;16.20;99.90;;;;;;4964991;28;20130;-69
2021/08/29 09:33:33;;;;;;;15.65;13.65;;;16.20;99.90;;;;;;4980243;28;20068;-69
2021/08/29 09:36:03;;;;;;;15.57;13.98;;;16.20;99.90;;;;;;4967083;28;20076;-69
2021/08/29 09:38:49;;;;;;;16.45;14.48;;;16.30;99.90;;;;;;4978011;28;20054;-69
2021/08/29 09:41:24;;;;;;;16.60;13.80;;;16.30;99.90;;;;;;4974351;28;20099;-74
2021/08/29 09:44:22;;;;;;;18.65;14.80;;;16.30;99.90;;;;;;4963082;28;20691;-67
2021/08/29 09:47:14;;;;;;;14.98;12.57;;;16.30;99.90;;;;;;4942992;28;20055;-69
2021/08/29 09:50:05;;;;;;;14.55;12.68;;;16.40;99.90;;;;;;4971926;28;20152;-71
2021/08/29 09:52:40;;;;;;;18.55;13.77;;;16.40;99.90;;;;;;4987981;28;20480;-69
2021/08/29 09:55:12;;;;;;;16.50;13.32;;;16.40;99.90;;;;;;4981734;28;20506;-67
2021/08/29 09:57:57;;;;;;;16.38;13.13;;;16.40;99.90;;;;;;4971812;28;20057;-68
2021/08/29 10:00:35;;;;;;;21.98;13.52;;;16.40;99.90;;;;;;4967849;28;20061;-69
2021/08/29 10:03:07;;;;;;;17.60;13.85;;;16.40;99.90;;;;;;4964809;28;20752;-68
2021/08/29 10:05:51;;;;;;;16.30;13.20;;;16.30;99.90;;;;;;4986769;28;20043;-72
2021/08/29 10:08:22;;;;;;;15.93;12.77;;;16.30;99.90;;;;;;4970776;28;20050;-77
2021/08/29 10:11:06;;;;;;;18.05;12.73;;;16.30;99.90;;;;;;4983781;28;20240;-64
2021/08/29 10:13:34;;;;;;;15.63;12.75;;;16.20;99.90;;;;;;4983191;28;20571;-73
2021/08/29 10:16:11;;;;;;;16.83;14.10;;;16.30;99.90;;;;;;4978181;28;20058;-69
2021/08/29 10:18:58;;;;;;;13.25;11.82;;;16.30;99.90;;;;;;4972318;28;20501;-72
2021/08/29 10:21:41;;;;;;;15.93;12.38;;;16.20;99.90;;;;;;4968156;28;20054;-69
2021/08/29 10:24:12;;;;;;;19.65;12.70;;;16.20;99.90;;;;;;4984309;28;20082;-72
2021/08/29 10:26:43;;;;;;;15.18;12.63;;;16.20;99.90;;;;;;4982463;28;20082;-76
2021/08/29 10:29:43;;;;;;;17.05;12.35;;;16.20;99.90;;;;;;4970993;28;20061;-64
2021/08/29 10:32:19;;;;;;;13.82;11.80;;;16.20;99.90;;;;;;4971420;28;20202;-68
2021/08/29 10:35:10;;;;;;;19.15;13.07;;;16.10;99.90;;;;;;4973579;28;20062;-67
2021/08/29 10:37:40;;;;;;;15.07;11.98;;;16.00;99.90;;;;;;4986307;28;20453;-73
2021/08/29 10:40:43;;;;;;;13.60;12.25;;;16.00;99.90;;;;;;4926138;28;20063;-66
2021/08/29 10:43:19;;;;;;;14.90;12.48;;;16.00;99.90;;;;;;4975109;28;20503;-67
2021/08/29 10:46:09;;;;;;;15.63;13.68;;;16.00;99.90;;;;;;4971602;28;20112;-67
2021/08/29 10:48:55;;;;;;;13.68;11.75;;;16.00;99.90;;;;;;4972279;28;20100;-65
2021/08/29 10:51:31;;;;;;;14.00;12.25;;;16.00;99.90;;;;;;4983671;28;20058;-69
2021/08/29 10:53:58;;;;;;;13.95;10.77;;;16.00;99.90;;;;;;4969076;28;20057;-77
2021/08/29 10:56:29;;;;;;;11.93;10.73;;;16.00;99.90;;;;;;4986752;28;20133;-67
2021/08/29 10:59:09;;;;;;;13.40;11.98;;;16.10;99.90;;;;;;4970722;28;20058;-68
2021/08/29 11:01:51;;;;;;;15.77;11.75;;;16.10;99.90;;;;;;4980069;28;20046;-69
2021/08/29 11:04:34;;;;;;;15.10;12.00;;;16.00;99.90;;;;;;4972668;28;20047;-67
2021/08/29 11:07:09;;;;;;;14.63;12.05;;;16.00;99.90;;;;;;4984753;28;20050;-68
2021/08/29 11:09:42;;;;;;;14.75;12.68;;;16.00;99.90;;;;;;4970975;28;20068;-70
2021/08/29 11:12:14;;;;;;;15.63;11.05;;;16.00;99.90;;;;;;4966033;28;20054;-65
2021/08/29 11:14:53;;;;;;;16.25;11.43;;;16.00;99.90;;;;;;4973654;28;20113;-70
2021/08/29 11:17:31;;;;;;;16.05;12.45;;;15.90;99.90;;;;;;4963702;28;20043;-63
2021/08/29 11:20:02;;;;;;;;;;;16.00;99.90;;;;;;4982986;28;20419;-72
2021/08/29 11:22:54;;;;;;;19.17;12.15;;;16.00;99.90;;;;;;4985653;28;20115;-67
2021/08/29 11:25:47;;;;;;;18.15;13.82;;;16.00;99.90;;;;;;4971834;28;20069;-66
2021/08/29 11:28:51;;;;;;;17.02;11.50;;;16.00;99.90;;;;;;4967142;28;20046;-69
2021/08/29 11:31:52;;;;;;;17.30;11.52;;;16.00;99.90;;;;;;4968519;28;20056;-63
2021/08/29 11:34:23;;;;;;;14.05;11.50;;;16.00;99.90;;;;;;4966240;28;20050;-68
2021/08/29 11:36:51;;;;;;;14.00;12.07;;;16.00;99.90;;;;;;4971411;28;23448;-67
2021/08/29 11:39:32;;;;;;;14.63;13.07;;;16.00;99.90;;;;;;4965844;28;20060;-71
2021/08/29 11:42:15;;;;;;;17.20;12.63;;;16.00;99.90;;;;;;4959737;28;20057;-69
2021/08/29 11:44:44;;;;;;;16.30;12.70;;;15.90;99.90;;;;;;4979971;28;20053;-69
2021/08/29 11:47:12;;;;;;;13.88;12.23;;;15.90;99.90;;;;;;4968739;28;20054;-63
2021/08/29 11:50:17;;;;;;;15.43;11.52;;;15.90;99.90;;;;;;4967087;28;20058;-65
2021/08/29 11:53:03;;;;;;;14.07;12.23;;;15.90;99.90;;;;;;4967243;28;20057;-66
2021/08/29 11:55:29;;;;;;;14.35;12.77;;;15.80;99.90;;;;;;4951462;28;20066;-69
2021/08/29 11:57:56;;;;;;;14.98;12.65;;;15.80;99.90;;;;;;4969454;28;21893;-65
2021/08/29 12:00:27;;;;;;;;;;;15.70;99.90;;;;;;4980333;28;20062;-65
2021/08/29 12:03:09;;;;;;;18.25;12.65;;;15.70;99.90;;;;;;4964750;28;20036;-66
2021/08/29 12:05:50;;;;;;;14.27;12.70;;;15.70;99.90;;;;;;4982994;28;20145;-69
2021/08/29 12:08:51;;;;;;;16.50;12.43;;;15.70;99.90;;;;;;4965871;28;20053;-73
2021/08/29 12:11:39;;;;;;;18.73;12.57;;;15.70;99.90;;;;;;4968782;28;20416;-70
2021/08/29 12:14:45;;;;;;;13.40;11.90;;;15.70;99.90;;;;;;4924301;28;20154;-69
2021/08/29 12:17:33;;;;;;;14.10;12.70;;;15.70;99.90;;;;;;4928366;28;20500;-69
2021/08/29 12:20:01;;;;;;;18.10;12.63;;;15.60;99.90;;;;;;4941100;28;20050;-68
2021/08/29 12:22:49;;;;;;;16.45;13.63;;;15.60;99.90;;;;;;4957672;28;21597;-68
2021/08/29 12:25:22;;;;;;;23.05;15.75;;;15.70;99.90;;;;;;4983125;28;20080;-71
2021/08/29 12:27:51;;;;;;;24.80;15.95;;;15.70;99.90;;;;;;4982666;28;20181;-63
2021/08/29 12:30:19;;;;;;;19.08;13.27;;;15.70;99.90;;;;;;4979282;28;20076;-67
2021/08/29 12:32:47;;;;;;;15.55;12.80;;;15.70;99.90;;;;;;4978025;28;20124;-69
2021/08/29 12:35:15;;;;;;;14.65;12.98;;;15.80;99.90;;;;;;4963651;28;20101;-64
2021/08/29 12:37:47;;;;;;;18.42;12.50;;;15.80;99.90;;;;;;4979960;28;20078;-68
2021/08/29 12:40:17;;;;;;;17.83;13.45;;;15.80;99.90;;;;;;4979686;28;20045;-67
2021/08/29 12:42:47;;;;;;;19.20;13.45;;;15.80;99.90;;;;;;4999425;28;20165;-65
2021/08/29 12:45:25;;;;;;;17.83;12.90;;;15.80;99.90;;;;;;4964656;28;20120;-64
2021/08/29 12:47:53;;;;;;;16.42;13.23;;;15.80;99.90;;;;;;4968914;28;20073;-67
2021/08/29 12:50:22;;;;;;;15.38;13.65;;;15.80;99.90;;;;;;4964654;28;20050;-72
2021/08/29 12:52:52;;;;;;;19.60;14.52;;;15.80;99.90;;;;;;4969795;28;20318;-69
2021/08/29 12:55:22;;;;;;;16.45;14.75;;;15.80;99.90;;;;;;4969593;28;20056;-70
2021/08/29 12:58:01;;;;;;;23.30;13.97;;;15.90;99.90;;;;;;4968620;28;20145;-69
2021/08/29 13:00:56;;;;;;;14.23;12.68;;;15.80;99.90;;;;;;4969450;28;20370;-67
2021/08/29 13:03:23;;;;;;;17.05;13.35;;;15.90;99.90;;;;;;4968159;28;20050;-69
2021/08/29 13:05:52;;;;;;;17.98;14.07;;;15.90;99.90;;;;;;4966298;28;20046;-63
2021/08/29 13:08:39;;;;;;;21.52;13.30;;;15.90;99.90;;;;;;4969201;28;20200;-69
2021/08/29 13:11:09;;;;;;;17.80;13.88;;;15.80;99.90;;;;;;4969906;28;21549;-66